sensor_id;sensor_type;location;lat;lon;timestamp;temperature;humidity
11087;DHT22;5597;47.588;9.642;2023-02-18T00:01:15;8.90;99.90
11087;DHT22;5597;47.588;9.642;2023-02-18T00:03:41;8.80;99.90
11087;DHT22;5597;47.588;9.642;2023-02-18T00:06:17;8.80;99.90
11087;DHT22;5597;47.588;9.642;2023-02-18T00:08:44;8.80;99.90
11087;DHT22;5597;47.588;9.642;2023-02-18T00:11:10;8.80;99.90
11087;DHT22;5597;47.588;9.642;2023-02-18T00:13:35;8.70;99.90
11087;DHT22;5597;47.588;9.642;2023-02-18T00:16:05;8.70;99.90
11087;DHT22;5597;47.588;9.642;2023-02-18T00:18:32;8.70;99.90
11087;DHT22;5597;47.588;9.642;2023-02-18T00:20:57;8.80;99.90
11087;DHT22;5597;47.588;9.642;2023-02-18T00:23:23;8.90;99.90
11087;DHT22;5597;47.588;9.642;2023-02-18T00:25:49;9.10;99.90
11087;DHT22;5597;47.588;9.642;2023-02-18T00:28:15;9.20;99.90
11087;DHT22;5597;47.588;9.642;2023-02-18T00:30:41;9.30;99.90
11087;DHT22;5597;47.588;9.642;2023-02-18T00:33:07;9.40;99.90
11087;DHT22;5597;47.588;9.642;2023-02-18T00:35:33;9.40;99.90
11087;DHT22;5597;47.588;9.642;2023-02-18T00:37:59;9.50;99.90
11087;DHT22;5597;47.588;9.642;2023-02-18T00:40:25;9.50;99.90
11087;DHT22;5597;47.588;9.642;2023-02-18T00:42:50;9.50;99.90
11087;DHT22;5597;47.588;9.642;2023-02-18T00:45:16;9.50;99.90
11087;DHT22;5597;47.588;9.642;2023-02-18T00:47:41;9.50;99.90
11087;DHT22;5597;47.588;9.642;2023-02-18T00:50:08;9.50;99.90
11087;DHT22;5597;47.588;9.642;2023-02-18T00:52:34;9.50;99.90
11087;DHT22;5597;47.588;9.642;2023-02-18T00:54:59;9.40;99.90
11087;DHT22;5597;47.588;9.642;2023-02-18T00:57:25;9.40;99.90
11087;DHT22;5597;47.588;9.642;2023-02-18T00:59:51;9.40;99.90
11087;DHT22;5597;47.588;9.642;2023-02-18T01:02:16;9.40;99.90
11087;DHT22;5597;47.588;9.642;2023-02-18T01:04:42;9.30;99.90
11087;DHT22;5597;47.588;9.642;2023-02-18T01:07:07;9.30;99.90
11087;DHT22;5597;47.588;9.642;2023-02-18T01:09:35;9.30;99.90
11087;DHT22;5597;47.588;9.642;2023-02-18T01:12:01;9.30;99.90
11087;DHT22;5597;47.588;9.642;2023-02-18T01:14:27;9.30;99.90
11087;DHT22;5597;47.588;9.642;2023-02-18T01:16:52;9.30;99.90
11087;DHT22;5597;47.588;9.642;2023-02-18T01:19:18;9.30;99.90
11087;DHT22;5597;47.588;9.642;2023-02-18T01:21:43;9.30;99.90
11087;DHT22;5597;47.588;9.642;2023-02-18T01:24:09;9.30;99.90
11087;DHT22;5597;47.588;9.642;2023-02-18T01:26:35;9.40;99.90
11087;DHT22;5597;47.588;9.642;2023-02-18T01:29:00;9.40;99.90
11087;DHT22;5597;47.588;9.642;2023-02-18T01:31:26;9.30;99.90
11087;DHT22;5597;47.588;9.642;2023-02-18T01:33:52;9.40;99.90
11087;DHT22;5597;47.588;9.642;2023-02-18T01:36:17;9.30;99.90
11087;DHT22;5597;47.588;9.642;2023-02-18T01:38:43;9.30;99.90
11087;DHT22;5597;47.588;9.642;2023-02-18T01:41:09;9.30;99.90
11087;DHT22;5597;47.588;9.642;2023-02-18T01:43:35;9.30;99.90
11087;DHT22;5597;47.588;9.642;2023-02-18T01:48:37;9.30;99.90
11087;DHT22;5597;47.588;9.642;2023-02-18T01:56:56;9.30;99.90
11087;DHT22;5597;47.588;9.642;2023-02-18T01:59:32;9.30;99.90
11087;DHT22;5597;47.588;9.642;2023-02-18T02:01:59;9.30;99.90
11087;DHT22;5597;47.588;9.642;2023-02-18T02:04:25;9.30;99.90
11087;DHT22;5597;47.588;9.642;2023-02-18T02:06:51;9.20;99.90
11087;DHT22;5597;47.588;9.642;2023-02-18T02:09:18;9.20;99.90
11087;DHT22;5597;47.588;9.642;2023-02-18T02:11:58;9.20;99.90
11087;DHT22;5597;47.588;9.642;2023-02-18T02:15:02;9.20;99.90
11087;DHT22;5597;47.588;9.642;2023-02-18T02:23:15;9.30;99.90
11087;DHT22;5597;47.588;9.642;2023-02-18T02:26:12;9.40;99.90
11087;DHT22;5597;47.588;9.642;2023-02-18T02:31:52;9.50;99.90
11087;DHT22;5597;47.588;9.642;2023-02-18T02:42:34;9.60;99.90
11087;DHT22;5597;47.588;9.642;2023-02-18T02:50:23;9.70;99.90
11087;DHT22;5597;47.588;9.642;2023-02-18T02:52:59;9.70;99.90
11087;DHT22;5597;47.588;9.642;2023-02-18T02:55:26;9.70;99.90
11087;DHT22;5597;47.588;9.642;2023-02-18T02:57:53;9.70;99.90
11087;DHT22;5597;47.588;9.642;2023-02-18T03:03:33;9.60;99.90
11087;DHT22;5597;47.588;9.642;2023-02-18T03:08:50;9.40;99.90
11087;DHT22;5597;47.588;9.642;2023-02-18T03:11:20;9.40;99.90
11087;DHT22;5597;47.588;9.642;2023-02-18T03:13:56;9.40;99.90
11087;DHT22;5597;47.588;9.642;2023-02-18T03:24:02;9.20;99.90
11087;DHT22;5597;47.588;9.642;2023-02-18T03:26:31;9.20;99.90
11087;DHT22;5597;47.588;9.642;2023-02-18T03:29:02;9.20;99.90
11087;DHT22;5597;47.588;9.642;2023-02-18T03:31:29;9.10;99.90
11087;DHT22;5597;47.588;9.642;2023-02-18T03:34:01;9.10;99.90
11087;DHT22;5597;47.588;9.642;2023-02-18T03:36:28;9.10;99.90
11087;DHT22;5597;47.588;9.642;2023-02-18T03:39:07;9.00;99.90
11087;DHT22;5597;47.588;9.642;2023-02-18T03:41:34;9.10;99.90
11087;DHT22;5597;47.588;9.642;2023-02-18T03:44:03;9.10;99.90
11087;DHT22;5597;47.588;9.642;2023-02-18T03:46:29;9.00;99.90
11087;DHT22;5597;47.588;9.642;2023-02-18T03:48:55;9.10;99.90
11087;DHT22;5597;47.588;9.642;2023-02-18T03:51:21;9.00;99.90
11087;DHT22;5597;47.588;9.642;2023-02-18T03:53:47;9.00;99.90
11087;DHT22;5597;47.588;9.642;2023-02-18T03:56:13;9.00;99.90
11087;DHT22;5597;47.588;9.642;2023-02-18T03:58:39;9.00;99.90
11087;DHT22;5597;47.588;9.642;2023-02-18T04:01:05;9.00;99.90
11087;DHT22;5597;47.588;9.642;2023-02-18T04:03:31;9.00;99.90
11087;DHT22;5597;47.588;9.642;2023-02-18T04:05:56;9.00;99.90
11087;DHT22;5597;47.588;9.642;2023-02-18T04:08:22;9.00;99.90
11087;DHT22;5597;47.588;9.642;2023-02-18T04:10:48;9.00;99.90
11087;DHT22;5597;47.588;9.642;2023-02-18T04:13:13;8.90;99.90
11087;DHT22;5597;47.588;9.642;2023-02-18T04:15:39;8.90;99.90
11087;DHT22;5597;47.588;9.642;2023-02-18T04:18:05;8.90;99.90
11087;DHT22;5597;47.588;9.642;2023-02-18T04:20:31;8.90;99.90
11087;DHT22;5597;47.588;9.642;2023-02-18T04:22:56;8.90;99.90
11087;DHT22;5597;47.588;9.642;2023-02-18T04:25:22;8.90;99.90
11087;DHT22;5597;47.588;9.642;2023-02-18T04:27:47;8.90;99.90
11087;DHT22;5597;47.588;9.642;2023-02-18T04:30:13;8.90;99.90
11087;DHT22;5597;47.588;9.642;2023-02-18T04:32:39;8.80;99.90
11087;DHT22;5597;47.588;9.642;2023-02-18T04:35:05;8.80;99.90
11087;DHT22;5597;47.588;9.642;2023-02-18T04:37:30;8.80;99.90
11087;DHT22;5597;47.588;9.642;2023-02-18T04:39:56;8.80;99.90
11087;DHT22;5597;47.588;9.642;2023-02-18T04:42:21;8.80;99.90
11087;DHT22;5597;47.588;9.642;2023-02-18T04:44:47;8.80;99.90
11087;DHT22;5597;47.588;9.642;2023-02-18T04:47:13;8.80;99.90
11087;DHT22;5597;47.588;9.642;2023-02-18T04:49:38;8.80;99.90
11087;DHT22;5597;47.588;9.642;2023-02-18T04:52:04;8.80;99.90
11087;DHT22;5597;47.588;9.642;2023-02-18T04:54:30;8.80;99.90
11087;DHT22;5597;47.588;9.642;2023-02-18T04:56:55;8.70;99.90
11087;DHT22;5597;47.588;9.642;2023-02-18T04:59:21;8.70;99.90
11087;DHT22;5597;47.588;9.642;2023-02-18T05:01:47;8.70;99.90
11087;DHT22;5597;47.588;9.642;2023-02-18T05:04:12;8.70;99.90
11087;DHT22;5597;47.588;9.642;2023-02-18T05:06:38;8.70;99.90
11087;DHT22;5597;47.588;9.642;2023-02-18T05:09:05;8.60;99.90
11087;DHT22;5597;47.588;9.642;2023-02-18T05:11:30;8.60;99.90
11087;DHT22;5597;47.588;9.642;2023-02-18T05:13:56;8.60;99.90
11087;DHT22;5597;47.588;9.642;2023-02-18T05:16:22;8.60;99.90
11087;DHT22;5597;47.588;9.642;2023-02-18T05:18:47;8.60;99.90
11087;DHT22;5597;47.588;9.642;2023-02-18T05:21:13;8.50;99.90
11087;DHT22;5597;47.588;9.642;2023-02-18T05:23:38;8.50;99.90
11087;DHT22;5597;47.588;9.642;2023-02-18T05:26:04;8.60;99.90
11087;DHT22;5597;47.588;9.642;2023-02-18T05:28:30;8.50;99.90
11087;DHT22;5597;47.588;9.642;2023-02-18T05:30:55;8.50;99.90
11087;DHT22;5597;47.588;9.642;2023-02-18T05:33:21;8.40;99.90
11087;DHT22;5597;47.588;9.642;2023-02-18T05:35:47;8.40;99.90
11087;DHT22;5597;47.588;9.642;2023-02-18T05:38:13;8.40;99.90
11087;DHT22;5597;47.588;9.642;2023-02-18T05:40:39;8.40;99.90
11087;DHT22;5597;47.588;9.642;2023-02-18T05:43:04;8.40;99.90
11087;DHT22;5597;47.588;9.642;2023-02-18T05:45:30;8.40;99.90
11087;DHT22;5597;47.588;9.642;2023-02-18T05:47:56;8.40;99.90
11087;DHT22;5597;47.588;9.642;2023-02-18T05:50:22;8.40;99.90
11087;DHT22;5597;47.588;9.642;2023-02-18T05:52:47;8.30;99.90
11087;DHT22;5597;47.588;9.642;2023-02-18T05:55:13;8.30;99.90
11087;DHT22;5597;47.588;9.642;2023-02-18T05:57:39;8.30;99.90
11087;DHT22;5597;47.588;9.642;2023-02-18T06:00:06;8.30;99.90
11087;DHT22;5597;47.588;9.642;2023-02-18T06:02:34;8.30;99.90
11087;DHT22;5597;47.588;9.642;2023-02-18T06:04:59;8.30;99.90
11087;DHT22;5597;47.588;9.642;2023-02-18T06:07:25;8.20;99.90
11087;DHT22;5597;47.588;9.642;2023-02-18T06:09:50;8.30;99.90
11087;DHT22;5597;47.588;9.642;2023-02-18T06:12:16;8.20;99.90
11087;DHT22;5597;47.588;9.642;2023-02-18T06:14:41;8.20;99.90
11087;DHT22;5597;47.588;9.642;2023-02-18T06:17:14;8.30;99.90
11087;DHT22;5597;47.588;9.642;2023-02-18T06:19:40;8.20;99.90
11087;DHT22;5597;47.588;9.642;2023-02-18T06:22:06;8.20;99.90
11087;DHT22;5597;47.588;9.642;2023-02-18T06:24:32;8.20;99.90
11087;DHT22;5597;47.588;9.642;2023-02-18T06:26:58;8.20;99.90
11087;DHT22;5597;47.588;9.642;2023-02-18T06:29:24;8.20;99.90
11087;DHT22;5597;47.588;9.642;2023-02-18T06:31:50;8.20;99.90
11087;DHT22;5597;47.588;9.642;2023-02-18T06:34:15;8.30;99.90
11087;DHT22;5597;47.588;9.642;2023-02-18T06:36:41;8.30;99.90
11087;DHT22;5597;47.588;9.642;2023-02-18T06:39:07;8.30;99.90
11087;DHT22;5597;47.588;9.642;2023-02-18T06:41:33;8.20;99.90
11087;DHT22;5597;47.588;9.642;2023-02-18T06:43:59;8.20;99.90
11087;DHT22;5597;47.588;9.642;2023-02-18T06:46:24;8.20;99.90
11087;DHT22;5597;47.588;9.642;2023-02-18T06:48:50;8.20;99.90
11087;DHT22;5597;47.588;9.642;2023-02-18T06:51:16;8.30;99.90
11087;DHT22;5597;47.588;9.642;2023-02-18T06:53:43;8.30;99.90
11087;DHT22;5597;47.588;9.642;2023-02-18T06:56:09;8.30;99.90
11087;DHT22;5597;47.588;9.642;2023-02-18T06:58:34;8.30;99.90
11087;DHT22;5597;47.588;9.642;2023-02-18T07:01:00;8.30;99.90
11087;DHT22;5597;47.588;9.642;2023-02-18T07:03:26;8.30;99.90
11087;DHT22;5597;47.588;9.642;2023-02-18T07:05:51;8.30;99.90
11087;DHT22;5597;47.588;9.642;2023-02-18T07:08:17;8.30;99.90
11087;DHT22;5597;47.588;9.642;2023-02-18T07:10:43;8.30;99.90
11087;DHT22;5597;47.588;9.642;2023-02-18T07:13:08;8.30;99.90
11087;DHT22;5597;47.588;9.642;2023-02-18T07:15:34;8.30;99.90
11087;DHT22;5597;47.588;9.642;2023-02-18T07:18:00;8.40;99.90
11087;DHT22;5597;47.588;9.642;2023-02-18T07:20:26;8.30;99.90
11087;DHT22;5597;47.588;9.642;2023-02-18T07:22:52;8.40;99.90
11087;DHT22;5597;47.588;9.642;2023-02-18T07:25:18;8.40;99.90
11087;DHT22;5597;47.588;9.642;2023-02-18T07:27:43;8.40;99.90
11087;DHT22;5597;47.588;9.642;2023-02-18T07:30:09;8.40;99.90
11087;DHT22;5597;47.588;9.642;2023-02-18T07:32:35;8.40;99.90
11087;DHT22;5597;47.588;9.642;2023-02-18T07:35:01;8.40;99.90
11087;DHT22;5597;47.588;9.642;2023-02-18T07:37:27;8.40;99.90
11087;DHT22;5597;47.588;9.642;2023-02-18T07:39:52;8.40;99.90
11087;DHT22;5597;47.588;9.642;2023-02-18T07:42:18;8.40;99.90
11087;DHT22;5597;47.588;9.642;2023-02-18T07:44:43;8.50;99.90
11087;DHT22;5597;47.588;9.642;2023-02-18T07:47:12;8.50;99.90
11087;DHT22;5597;47.588;9.642;2023-02-18T07:49:38;8.50;99.90
11087;DHT22;5597;47.588;9.642;2023-02-18T07:52:04;8.50;99.90
11087;DHT22;5597;47.588;9.642;2023-02-18T07:54:30;8.50;99.90
11087;DHT22;5597;47.588;9.642;2023-02-18T07:56:55;8.60;99.90
11087;DHT22;5597;47.588;9.642;2023-02-18T07:59:21;8.70;99.90
11087;DHT22;5597;47.588;9.642;2023-02-18T08:01:46;8.70;99.90
11087;DHT22;5597;47.588;9.642;2023-02-18T08:04:12;8.80;99.90
11087;DHT22;5597;47.588;9.642;2023-02-18T08:06:44;8.90;99.90
11087;DHT22;5597;47.588;9.642;2023-02-18T08:09:14;9.00;99.90
11087;DHT22;5597;47.588;9.642;2023-02-18T08:11:40;9.10;99.90
11087;DHT22;5597;47.588;9.642;2023-02-18T08:14:06;9.20;99.90
11087;DHT22;5597;47.588;9.642;2023-02-18T08:16:32;9.40;99.90
11087;DHT22;5597;47.588;9.642;2023-02-18T08:18:59;9.50;99.90
11087;DHT22;5597;47.588;9.642;2023-02-18T08:21:25;9.60;99.90
11087;DHT22;5597;47.588;9.642;2023-02-18T08:23:52;9.80;99.90
11087;DHT22;5597;47.588;9.642;2023-02-18T08:26:18;10.00;99.90
11087;DHT22;5597;47.588;9.642;2023-02-18T08:28:45;10.40;99.90
11087;DHT22;5597;47.588;9.642;2023-02-18T08:31:20;10.80;99.90
11087;DHT22;5597;47.588;9.642;2023-02-18T08:33:46;11.20;99.90
11087;DHT22;5597;47.588;9.642;2023-02-18T08:36:12;11.60;99.90
11087;DHT22;5597;47.588;9.642;2023-02-18T08:38:37;11.90;99.90
11087;DHT22;5597;47.588;9.642;2023-02-18T08:41:05;12.10;99.90
11087;DHT22;5597;47.588;9.642;2023-02-18T08:43:31;12.20;99.90
11087;DHT22;5597;47.588;9.642;2023-02-18T08:45:57;12.20;99.90
11087;DHT22;5597;47.588;9.642;2023-02-18T08:48:24;12.20;99.90
11087;DHT22;5597;47.588;9.642;2023-02-18T08:50:50;12.20;99.90
11087;DHT22;5597;47.588;9.642;2023-02-18T08:53:16;12.10;99.90
11087;DHT22;5597;47.588;9.642;2023-02-18T08:55:42;12.10;99.90
11087;DHT22;5597;47.588;9.642;2023-02-18T08:58:08;12.10;99.90
11087;DHT22;5597;47.588;9.642;2023-02-18T09:00:35;12.10;99.90
11087;DHT22;5597;47.588;9.642;2023-02-18T09:03:00;12.10;99.90
11087;DHT22;5597;47.588;9.642;2023-02-18T09:05:26;12.20;99.90
11087;DHT22;5597;47.588;9.642;2023-02-18T09:07:52;12.20;99.90
11087;DHT22;5597;47.588;9.642;2023-02-18T09:10:18;12.20;99.90
11087;DHT22;5597;47.588;9.642;2023-02-18T09:12:43;12.30;99.90
11087;DHT22;5597;47.588;9.642;2023-02-18T09:15:09;12.30;99.90
11087;DHT22;5597;47.588;9.642;2023-02-18T09:17:35;12.40;99.90
11087;DHT22;5597;47.588;9.642;2023-02-18T09:20:00;12.40;99.90
11087;DHT22;5597;47.588;9.642;2023-02-18T09:22:26;12.40;99.90
11087;DHT22;5597;47.588;9.642;2023-02-18T09:24:52;12.50;99.90
11087;DHT22;5597;47.588;9.642;2023-02-18T09:27:17;12.50;99.90
11087;DHT22;5597;47.588;9.642;2023-02-18T09:29:43;12.60;99.90
11087;DHT22;5597;47.588;9.642;2023-02-18T09:32:09;12.70;99.90
11087;DHT22;5597;47.588;9.642;2023-02-18T09:34:36;12.80;99.90
11087;DHT22;5597;47.588;9.642;2023-02-18T09:37:02;12.90;99.90
11087;DHT22;5597;47.588;9.642;2023-02-18T09:39:28;13.00;99.90
11087;DHT22;5597;47.588;9.642;2023-02-18T09:42:05;13.10;99.90
11087;DHT22;5597;47.588;9.642;2023-02-18T09:44:42;13.10;99.90
11087;DHT22;5597;47.588;9.642;2023-02-18T09:47:27;13.10;99.90
11087;DHT22;5597;47.588;9.642;2023-02-18T09:49:58;13.10;99.90
11087;DHT22;5597;47.588;9.642;2023-02-18T09:52:31;13.10;99.90
11087;DHT22;5597;47.588;9.642;2023-02-18T09:54:58;13.20;99.90
11087;DHT22;5597;47.588;9.642;2023-02-18T09:57:32;13.20;99.90
11087;DHT22;5597;47.588;9.642;2023-02-18T10:00:03;13.30;99.90
11087;DHT22;5597;47.588;9.642;2023-02-18T10:02:29;13.30;99.90
11087;DHT22;5597;47.588;9.642;2023-02-18T10:04:56;13.30;99.90
11087;DHT22;5597;47.588;9.642;2023-02-18T10:07:27;13.40;99.90
11087;DHT22;5597;47.588;9.642;2023-02-18T10:09:56;13.40;99.90
11087;DHT22;5597;47.588;9.642;2023-02-18T10:12:24;13.40;99.90
11087;DHT22;5597;47.588;9.642;2023-02-18T10:14:53;13.50;99.90
11087;DHT22;5597;47.588;9.642;2023-02-18T10:17:20;13.50;99.90
11087;DHT22;5597;47.588;9.642;2023-02-18T10:19:49;13.50;99.90
11087;DHT22;5597;47.588;9.642;2023-02-18T10:22:16;13.60;99.90
11087;DHT22;5597;47.588;9.642;2023-02-18T10:24:47;13.70;99.90
11087;DHT22;5597;47.588;9.642;2023-02-18T10:29:51;13.70;99.90
11087;DHT22;5597;47.588;9.642;2023-02-18T10:32:32;13.80;99.90
11087;DHT22;5597;47.588;9.642;2023-02-18T10:38:01;13.90;99.90
11087;DHT22;5597;47.588;9.642;2023-02-18T10:45:52;14.00;99.90
11087;DHT22;5597;47.588;9.642;2023-02-18T10:51:28;14.00;99.90
11087;DHT22;5597;47.588;9.642;2023-02-18T10:53:55;14.00;99.90
11087;DHT22;5597;47.588;9.642;2023-02-18T10:56:46;14.00;99.90
11087;DHT22;5597;47.588;9.642;2023-02-18T10:59:22;14.10;99.90
11087;DHT22;5597;47.588;9.642;2023-02-18T11:01:58;14.10;99.90
11087;DHT22;5597;47.588;9.642;2023-02-18T11:04:34;14.10;99.90
11087;DHT22;5597;47.588;9.642;2023-02-18T11:07:11;14.20;99.90
11087;DHT22;5597;47.588;9.642;2023-02-18T11:10:14;14.30;99.90
11087;DHT22;5597;47.588;9.642;2023-02-18T11:12:50;14.50;99.90
11087;DHT22;5597;47.588;9.642;2023-02-18T11:15:23;14.80;99.90
11087;DHT22;5597;47.588;9.642;2023-02-18T11:17:51;15.00;99.90
11087;DHT22;5597;47.588;9.642;2023-02-18T11:22:49;15.30;99.90
11087;DHT22;5597;47.588;9.642;2023-02-18T11:25:21;15.50;99.90
11087;DHT22;5597;47.588;9.642;2023-02-18T11:27:54;15.60;99.90
11087;DHT22;5597;47.588;9.642;2023-02-18T11:30:24;15.80;99.90
11087;DHT22;5597;47.588;9.642;2023-02-18T11:32:57;15.90;99.90
11087;DHT22;5597;47.588;9.642;2023-02-18T11:35:27;16.00;99.90
11087;DHT22;5597;47.588;9.642;2023-02-18T11:37:56;16.10;99.90
11087;DHT22;5597;47.588;9.642;2023-02-18T11:43:11;16.10;99.90
11087;DHT22;5597;47.588;9.642;2023-02-18T11:45:37;16.00;99.90
11087;DHT22;5597;47.588;9.642;2023-02-18T11:48:22;16.00;99.90
11087;DHT22;5597;47.588;9.642;2023-02-18T11:50:52;16.00;99.90
11087;DHT22;5597;47.588;9.642;2023-02-18T11:53:36;16.00;99.90
11087;DHT22;5597;47.588;9.642;2023-02-18T11:56:16;15.90;99.90
11087;DHT22;5597;47.588;9.642;2023-02-18T11:58:46;15.80;99.90
11087;DHT22;5597;47.588;9.642;2023-02-18T12:01:18;15.80;99.90
11087;DHT22;5597;47.588;9.642;2023-02-18T12:12:23;15.50;99.90
11087;DHT22;5597;47.588;9.642;2023-02-18T12:14:50;15.40;99.90
11087;DHT22;5597;47.588;9.642;2023-02-18T12:28:37;15.10;99.90
11087;DHT22;5597;47.588;9.642;2023-02-18T12:40:02;15.10;99.90
11087;DHT22;5597;47.588;9.642;2023-02-18T12:42:53;15.10;99.90
11087;DHT22;5597;47.588;9.642;2023-02-18T12:56:02;15.30;99.90
11087;DHT22;5597;47.588;9.642;2023-02-18T13:09:43;15.30;99.90
11087;DHT22;5597;47.588;9.642;2023-02-18T13:12:40;15.30;99.90
11087;DHT22;5597;47.588;9.642;2023-02-18T13:17:47;15.30;99.90
11087;DHT22;5597;47.588;9.642;2023-02-18T13:20:40;15.40;99.90
11087;DHT22;5597;47.588;9.642;2023-02-18T13:23:20;15.50;99.90
11087;DHT22;5597;47.588;9.642;2023-02-18T13:25:50;15.60;99.90
11087;DHT22;5597;47.588;9.642;2023-02-18T13:31:24;15.80;99.90
11087;DHT22;5597;47.588;9.642;2023-02-18T13:34:51;16.00;99.90
11087;DHT22;5597;47.588;9.642;2023-02-18T13:40:13;16.20;99.90
11087;DHT22;5597;47.588;9.642;2023-02-18T13:42:38;16.20;99.90
11087;DHT22;5597;47.588;9.642;2023-02-18T13:45:14;16.20;99.90
11087;DHT22;5597;47.588;9.642;2023-02-18T13:47:47;16.20;99.90
11087;DHT22;5597;47.588;9.642;2023-02-18T13:52:58;16.40;99.90
11087;DHT22;5597;47.588;9.642;2023-02-18T13:55:54;16.40;99.90
11087;DHT22;5597;47.588;9.642;2023-02-18T13:58:39;16.30;99.90
11087;DHT22;5597;47.588;9.642;2023-02-18T14:06:14;16.00;99.90
11087;DHT22;5597;47.588;9.642;2023-02-18T14:08:41;16.10;99.90
11087;DHT22;5597;47.588;9.642;2023-02-18T14:14:13;16.10;99.90
11087;DHT22;5597;47.588;9.642;2023-02-18T14:19:42;15.80;99.90
11087;DHT22;5597;47.588;9.642;2023-02-18T14:25:02;15.70;99.90
11087;DHT22;5597;47.588;9.642;2023-02-18T14:27:27;15.70;99.90
11087;DHT22;5597;47.588;9.642;2023-02-18T14:29:53;15.70;99.90
11087;DHT22;5597;47.588;9.642;2023-02-18T14:32:19;15.70;99.90
11087;DHT22;5597;47.588;9.642;2023-02-18T14:37:21;15.40;99.90
11087;DHT22;5597;47.588;9.642;2023-02-18T14:40:05;15.30;99.90
11087;DHT22;5597;47.588;9.642;2023-02-18T14:48:13;14.80;99.90
11087;DHT22;5597;47.588;9.642;2023-02-18T14:50:45;14.70;99.90
11087;DHT22;5597;47.588;9.642;2023-02-18T14:53:16;14.70;99.90
11087;DHT22;5597;47.588;9.642;2023-02-18T14:55:46;14.60;99.90
11087;DHT22;5597;47.588;9.642;2023-02-18T15:00:53;14.50;99.90
11087;DHT22;5597;47.588;9.642;2023-02-18T15:03:19;14.50;99.90
11087;DHT22;5597;47.588;9.642;2023-02-18T15:05:48;14.50;99.90
11087;DHT22;5597;47.588;9.642;2023-02-18T15:08:24;14.40;99.90
11087;DHT22;5597;47.588;9.642;2023-02-18T15:10:59;14.40;99.90
11087;DHT22;5597;47.588;9.642;2023-02-18T15:13:41;14.30;99.90
11087;DHT22;5597;47.588;9.642;2023-02-18T15:16:19;14.30;99.90
11087;DHT22;5597;47.588;9.642;2023-02-18T15:18:55;14.20;99.90
11087;DHT22;5597;47.588;9.642;2023-02-18T15:21:28;14.20;99.90
11087;DHT22;5597;47.588;9.642;2023-02-18T15:23:54;14.10;99.90
11087;DHT22;5597;47.588;9.642;2023-02-18T15:26:24;14.00;99.90
11087;DHT22;5597;47.588;9.642;2023-02-18T15:29:03;14.00;99.90
11087;DHT22;5597;47.588;9.642;2023-02-18T15:31:35;13.90;99.90
11087;DHT22;5597;47.588;9.642;2023-02-18T15:34:01;13.80;99.90
11087;DHT22;5597;47.588;9.642;2023-02-18T15:36:27;13.80;99.90
11087;DHT22;5597;47.588;9.642;2023-02-18T15:38:53;13.70;99.90
11087;DHT22;5597;47.588;9.642;2023-02-18T15:41:20;13.70;99.90
11087;DHT22;5597;47.588;9.642;2023-02-18T15:44:20;13.60;99.90
11087;DHT22;5597;47.588;9.642;2023-02-18T15:46:46;13.60;99.90
11087;DHT22;5597;47.588;9.642;2023-02-18T15:49:16;13.50;99.90
11087;DHT22;5597;47.588;9.642;2023-02-18T15:51:44;13.50;99.90
11087;DHT22;5597;47.588;9.642;2023-02-18T15:54:16;13.40;99.90
11087;DHT22;5597;47.588;9.642;2023-02-18T15:56:44;13.40;99.90
11087;DHT22;5597;47.588;9.642;2023-02-18T16:01:54;13.30;99.90
11087;DHT22;5597;47.588;9.642;2023-02-18T16:04:22;13.20;99.90
11087;DHT22;5597;47.588;9.642;2023-02-18T16:06:50;13.20;99.90
11087;DHT22;5597;47.588;9.642;2023-02-18T16:09:25;13.10;99.90
11087;DHT22;5597;47.588;9.642;2023-02-18T16:12:03;13.10;99.90
11087;DHT22;5597;47.588;9.642;2023-02-18T16:30:28;12.70;99.90
11087;DHT22;5597;47.588;9.642;2023-02-18T16:32:55;12.70;99.90
11087;DHT22;5597;47.588;9.642;2023-02-18T16:35:23;12.60;99.90
11087;DHT22;5597;47.588;9.642;2023-02-18T16:37:50;12.60;99.90
11087;DHT22;5597;47.588;9.642;2023-02-18T16:43:04;12.50;99.90
11087;DHT22;5597;47.588;9.642;2023-02-18T16:45:33;12.40;99.90
11087;DHT22;5597;47.588;9.642;2023-02-18T16:48:00;12.30;99.90
11087;DHT22;5597;47.588;9.642;2023-02-18T16:50:27;12.30;99.90
11087;DHT22;5597;47.588;9.642;2023-02-18T16:52:55;12.20;99.90
11087;DHT22;5597;47.588;9.642;2023-02-18T16:55:23;12.20;99.90
11087;DHT22;5597;47.588;9.642;2023-02-18T16:57:49;12.20;99.90
11087;DHT22;5597;47.588;9.642;2023-02-18T17:00:16;12.10;99.90
11087;DHT22;5597;47.588;9.642;2023-02-18T17:02:49;12.10;99.90
11087;DHT22;5597;47.588;9.642;2023-02-18T17:05:21;12.00;99.90
11087;DHT22;5597;47.588;9.642;2023-02-18T17:07:47;12.00;99.90
11087;DHT22;5597;47.588;9.642;2023-02-18T17:10:13;12.00;99.90
11087;DHT22;5597;47.588;9.642;2023-02-18T17:12:39;11.90;99.90
11087;DHT22;5597;47.588;9.642;2023-02-18T17:15:27;11.90;99.90
11087;DHT22;5597;47.588;9.642;2023-02-18T17:17:54;11.90;99.90
11087;DHT22;5597;47.588;9.642;2023-02-18T17:20:27;11.80;99.90
11087;DHT22;5597;47.588;9.642;2023-02-18T17:22:53;11.80;99.90
11087;DHT22;5597;47.588;9.642;2023-02-18T17:25:37;11.80;99.90
11087;DHT22;5597;47.588;9.642;2023-02-18T17:28:03;11.80;99.90
11087;DHT22;5597;47.588;9.642;2023-02-18T17:30:30;11.80;99.90
11087;DHT22;5597;47.588;9.642;2023-02-18T17:32:58;11.80;99.90
11087;DHT22;5597;47.588;9.642;2023-02-18T17:35:24;11.70;99.90
11087;DHT22;5597;47.588;9.642;2023-02-18T17:37:51;11.60;99.90
11087;DHT22;5597;47.588;9.642;2023-02-18T17:40:23;11.60;99.90
11087;DHT22;5597;47.588;9.642;2023-02-18T17:42:48;11.60;99.90
11087;DHT22;5597;47.588;9.642;2023-02-18T17:45:27;11.50;99.90
11087;DHT22;5597;47.588;9.642;2023-02-18T17:47:55;11.50;99.90
11087;DHT22;5597;47.588;9.642;2023-02-18T17:50:21;11.40;99.90
11087;DHT22;5597;47.588;9.642;2023-02-18T17:52:47;11.40;99.90
11087;DHT22;5597;47.588;9.642;2023-02-18T17:57:41;11.30;99.90
11087;DHT22;5597;47.588;9.642;2023-02-18T18:00:10;11.30;99.90
11087;DHT22;5597;47.588;9.642;2023-02-18T18:02:36;11.30;99.90
11087;DHT22;5597;47.588;9.642;2023-02-18T18:05:02;11.30;99.90
11087;DHT22;5597;47.588;9.642;2023-02-18T18:07:28;11.20;99.90
11087;DHT22;5597;47.588;9.642;2023-02-18T18:09:53;11.20;99.90
11087;DHT22;5597;47.588;9.642;2023-02-18T18:12:19;11.10;99.90
11087;DHT22;5597;47.588;9.642;2023-02-18T18:14:46;11.00;99.90
11087;DHT22;5597;47.588;9.642;2023-02-18T18:17:12;10.90;99.90
11087;DHT22;5597;47.588;9.642;2023-02-18T18:19:38;10.80;99.90
11087;DHT22;5597;47.588;9.642;2023-02-18T18:22:05;10.80;99.90
11087;DHT22;5597;47.588;9.642;2023-02-18T18:24:31;10.70;99.90
11087;DHT22;5597;47.588;9.642;2023-02-18T18:26:57;10.60;99.90
11087;DHT22;5597;47.588;9.642;2023-02-18T18:29:23;10.60;99.90
11087;DHT22;5597;47.588;9.642;2023-02-18T18:31:48;10.50;99.90
11087;DHT22;5597;47.588;9.642;2023-02-18T18:34:14;10.40;99.90
11087;DHT22;5597;47.588;9.642;2023-02-18T18:36:43;10.40;99.90
11087;DHT22;5597;47.588;9.642;2023-02-18T18:39:09;10.30;99.90
11087;DHT22;5597;47.588;9.642;2023-02-18T18:41:34;10.20;99.90
11087;DHT22;5597;47.588;9.642;2023-02-18T18:44:01;10.20;99.90
11087;DHT22;5597;47.588;9.642;2023-02-18T18:46:27;10.20;99.90
11087;DHT22;5597;47.588;9.642;2023-02-18T18:48:53;10.10;99.90
11087;DHT22;5597;47.588;9.642;2023-02-18T18:51:24;10.10;99.90
11087;DHT22;5597;47.588;9.642;2023-02-18T18:53:51;10.10;99.90
11087;DHT22;5597;47.588;9.642;2023-02-18T18:56:17;10.10;99.90
11087;DHT22;5597;47.588;9.642;2023-02-18T18:58:42;10.10;99.90